createdAt,value
2023-03-23T15:59:04.871Z,49.03
2023-03-23T16:01:48.622Z,49.06
2023-03-23T16:04:24.661Z,49.31
2023-03-23T16:07:02.030Z,49.66
2023-03-23T16:09:37.219Z,49.76
2023-03-23T16:12:15.480Z,50.07
2023-03-23T16:14:51.462Z,50.14
2023-03-23T16:17:27.464Z,50.10
2023-03-23T16:20:04.616Z,50.37
2023-03-23T16:22:46.686Z,50.49
2023-03-23T16:25:29.353Z,50.79
2023-03-23T16:28:02.209Z,50.83
2023-03-23T16:30:37.906Z,50.91
2023-03-23T16:33:10.948Z,51.08
2023-03-23T16:35:44.291Z,51.05
2023-03-23T16:38:20.596Z,51.45
2023-03-23T16:40:53.485Z,51.38
2023-03-23T16:43:26.743Z,51.44
2023-03-23T16:46:00.342Z,51.72
2023-03-23T16:48:33.562Z,51.62
2023-03-23T16:51:06.667Z,51.51
2023-03-23T16:53:39.498Z,51.66
2023-03-23T16:56:12.363Z,51.78
2023-03-23T16:58:46.305Z,51.94
2023-03-23T17:01:22.225Z,51.88
2023-03-23T17:03:57.815Z,52.04
2023-03-23T17:06:30.724Z,52.10
2023-03-23T17:09:08.451Z,52.14
2023-03-23T17:11:43.376Z,52.17
2023-03-23T17:14:26.264Z,52.25
2023-03-23T17:16:59.247Z,52.26
2023-03-23T17:19:37.166Z,52.39
2023-03-23T17:22:10.017Z,52.55
2023-03-23T17:24:42.852Z,52.68
2023-03-23T17:27:15.649Z,52.79
2023-03-23T17:29:52.005Z,52.93
2023-03-23T17:32:26.206Z,52.87
2023-03-23T17:34:59.083Z,53.09
2023-03-23T17:37:33.351Z,52.94
2023-03-23T17:40:10.228Z,53.05
2023-03-23T17:42:43.230Z,53.04
2023-03-23T17:45:19.066Z,53.10
2023-03-23T17:47:54.283Z,53.13
2023-03-23T17:50:30.470Z,53.11
2023-03-23T17:53:03.227Z,53.36
2023-03-23T17:55:41.134Z,53.39
2023-03-23T17:58:14.377Z,53.41
2023-03-23T18:00:47.065Z,53.53
2023-03-23T18:03:19.927Z,53.71
2023-03-23T18:05:52.859Z,53.84
2023-03-23T18:08:26.231Z,53.56
2023-03-23T18:11:02.820Z,53.67
2023-03-23T18:13:37.135Z,53.64
2023-03-23T18:16:11.293Z,53.73
2023-03-23T18:18:44.049Z,53.75
2023-03-23T18:21:18.310Z,53.60
2023-03-23T18:23:58.844Z,53.70
2023-03-23T18:26:42.873Z,53.79
2023-03-23T18:29:18.411Z,53.64
2023-03-23T18:31:51.139Z,53.69
2023-03-23T18:34:26.708Z,53.89
2023-03-23T18:36:59.335Z,53.64
2023-03-23T18:39:37.085Z,53.74
2023-03-23T18:42:12.928Z,53.67
2023-03-23T18:44:46.050Z,54.00
2023-03-23T18:47:21.593Z,53.83
2023-03-23T18:49:59.688Z,53.84
2023-03-23T18:52:33.050Z,54.00
2023-03-23T18:55:10.832Z,54.06
2023-03-23T18:57:45.071Z,53.99
2023-03-23T19:00:38.720Z,54.03
2023-03-23T19:03:13.891Z,53.99
2023-03-23T19:05:51.515Z,54.24
2023-03-23T19:08:24.483Z,54.37
2023-03-23T19:11:09.994Z,54.55
2023-03-23T19:13:53.867Z,54.40
2023-03-23T19:16:32.495Z,54.85
2023-03-23T19:19:07.712Z,55.26
2023-03-23T19:21:46.953Z,55.91
2023-03-23T19:24:26.348Z,56.29
2023-03-23T19:27:11.017Z,56.21
2023-03-23T19:29:45.112Z,56.24
2023-03-23T19:32:17.962Z,56.06
2023-03-23T19:34:51.330Z,55.94
2023-03-23T19:37:24.377Z,56.03
2023-03-23T19:40:01.511Z,56.22
2023-03-23T19:42:42.422Z,56.26
2023-03-23T19:45:18.087Z,56.23
2023-03-23T19:47:53.710Z,56.00
2023-03-23T19:50:29.283Z,56.07
2023-03-23T19:53:01.972Z,55.94
2023-03-23T19:55:37.146Z,56.03
2023-03-23T19:58:15.624Z,55.96
2023-03-23T20:00:48.979Z,56.14
2023-03-23T20:03:25.946Z,56.10
2023-03-23T20:06:05.996Z,55.93
2023-03-23T20:08:43.983Z,55.97
2023-03-23T20:11:18.721Z,55.96
2023-03-23T20:13:51.677Z,55.93
2023-03-23T20:16:26.622Z,55.77
2023-03-23T20:19:00.457Z,56.02
2023-03-23T20:21:35.618Z,56.28
2023-03-23T20:24:08.620Z,56.30
2023-03-23T20:26:44.893Z,56.33
2023-03-23T20:29:17.542Z,56.52
2023-03-23T20:31:51.006Z,56.82
2023-03-23T20:34:31.021Z,57.06
2023-03-23T20:37:10.801Z,57.00
2023-03-23T20:39:48.820Z,57.02
2023-03-23T20:42:21.651Z,57.02
2023-03-23T20:44:54.362Z,57.01
2023-03-23T20:47:32.656Z,56.88
2023-03-23T20:50:07.342Z,56.93
2023-03-23T20:52:43.000Z,57.02
2023-03-23T20:55:35.798Z,56.96
2023-03-23T20:58:08.792Z,57.05
2023-03-23T21:00:42.745Z,57.17
2023-03-23T21:03:21.138Z,57.21
2023-03-23T21:05:53.901Z,57.35
2023-03-23T21:08:47.916Z,57.21
2023-03-23T21:11:25.813Z,57.35
2023-03-23T21:14:02.454Z,57.26
2023-03-23T21:16:35.674Z,57.37
2023-03-23T21:19:09.228Z,57.43
2023-03-23T21:21:56.017Z,57.49
2023-03-23T21:24:31.541Z,57.25
2023-03-23T21:27:05.430Z,57.32
2023-03-23T21:29:47.504Z,57.33
2023-03-23T21:32:24.863Z,57.34
2023-03-23T21:35:02.489Z,57.40
2023-03-23T21:37:39.127Z,57.31
2023-03-23T21:40:16.940Z,57.24
2023-03-23T21:43:02.798Z,57.36
2023-03-23T21:45:39.409Z,57.49
2023-03-23T21:48:16.005Z,57.35
2023-03-23T21:50:48.780Z,57.37
2023-03-23T21:53:27.095Z,57.26
2023-03-23T21:56:00.351Z,57.23
2023-03-23T21:58:33.067Z,57.25
2023-03-23T22:01:06.650Z,57.05
2023-03-23T22:03:40.401Z,57.09
2023-03-23T22:06:16.225Z,56.95
2023-03-23T22:08:50.430Z,57.06
2023-03-23T22:11:28.524Z,57.04
2023-03-23T22:14:05.520Z,56.94
2023-03-23T22:16:38.702Z,56.89
2023-03-23T22:19:11.489Z,56.99
2023-03-23T22:21:44.821Z,56.92
2023-03-23T22:24:18.845Z,56.95
2023-03-23T22:26:51.536Z,57.07
2023-03-23T22:29:24.442Z,57.11
2023-03-23T22:31:57.104Z,57.03
2023-03-23T22:34:39.937Z,57.14
2023-03-23T22:37:13.669Z,57.03
2023-03-23T22:39:46.301Z,57.16
2023-03-23T22:42:20.418Z,57.13
2023-03-23T22:44:53.115Z,57.00
2023-03-23T22:47:25.750Z,56.97
2023-03-23T22:49:58.544Z,57.13
2023-03-23T22:52:32.425Z,57.08
2023-03-23T22:55:10.233Z,57.08
2023-03-23T22:57:50.797Z,57.13
2023-03-23T23:00:23.623Z,57.11
2023-03-23T23:02:59.436Z,56.99
2023-03-23T23:05:32.058Z,57.07
2023-03-23T23:08:12.362Z,56.83
2023-03-23T23:10:47.205Z,57.04
2023-03-23T23:13:40.311Z,57.00
2023-03-23T23:16:17.348Z,56.94
2023-03-23T23:18:50.278Z,56.83
2023-03-23T23:21:28.980Z,56.92
2023-03-23T23:24:12.154Z,56.92
2023-03-23T23:26:54.057Z,57.02
2023-03-23T23:29:27.465Z,57.01
2023-03-23T23:32:02.167Z,56.85
2023-03-23T23:34:34.973Z,57.01
2023-03-23T23:37:09.120Z,57.09
2023-03-23T23:39:42.638Z,57.10
2023-03-23T23:42:15.737Z,57.22
2023-03-23T23:44:48.456Z,57.03
2023-03-23T23:47:21.746Z,57.26
2023-03-23T23:49:54.557Z,57.18
2023-03-23T23:52:38.458Z,57.34
2023-03-23T23:55:16.663Z,57.23
2023-03-23T23:58:02.018Z,57.49
